Time;durP1;ratioP1;P1;durP2;ratioP2;P2;SDS_P1;SDS_P2;PMS_P1;PMS_P2;Temp;Humidity;BMP_temperature;BMP_pressure;BME280_temperature;BME280_humidity;BME280_pressure;Samples;Min_cycle;Max_cycle;Signal;HPM_P1;HPM_P2
2024/02/16 02:11:05;;;;;;;;;;;;;;;9.86;93.89;101796.63;106407;1254;74276;-85
2024/02/16 02:13:39;;;;;;;;;;;;;;;9.95;92.80;101795.27;106278;1254;69034;-84
2024/02/16 02:16:09;;;;;;;;;;;;;;;9.99;91.55;101798.53;106331;1259;71612;-81
2024/02/16 02:18:43;;;;;;;;;;;;;;;10.04;89.62;101803.71;106249;1254;60455;-81
2024/02/16 02:21:23;;;;;;;;;;;;;;;10.10;88.45;101808.13;106337;1254;61260;-81
2024/02/16 02:23:51;;;;;;;;;;;;;;;10.12;87.20;101812.92;106617;1253;72576;-81
2024/02/16 02:26:25;;;;;;;;;;;;;;;9.94;87.81;101808.31;106287;1254;68349;-85
2024/02/16 02:28:58;;;;;;;;;;;;;;;9.73;88.83;101816.77;106215;1253;72407;-81
2024/02/16 02:31:38;;;;;;;;;;;;;;;9.54;90.05;101817.67;106214;1253;60523;-81
2024/02/16 02:34:18;;;;;;;;;;;;;;;9.52;90.55;101823.19;106477;1253;60662;-85
2024/02/16 02:36:52;;;;;;;;;;;;;;;9.56;89.81;101822.94;106390;1253;73867;-84
2024/02/16 02:39:25;;;;;;;;;;;;;;;9.61;88.72;101821.22;106444;1254;68423;-81
2024/02/16 02:42:05;;;;;;;;;;;;;;;9.65;87.71;101822.44;106281;1252;72415;-84
2024/02/16 02:44:49;;;;;;;;;;;;;;;9.68;86.14;101819.65;106312;1253;60898;-85
2024/02/16 02:47:17;;;;;;;;;;;;;;;9.53;86.39;101821.08;106340;1256;60333;-85
2024/02/16 02:49:57;;;;;;;;;;;;;;;9.61;85.31;101822.31;106335;1255;73811;-85
2024/02/16 02:52:37;;;;;;;;;;;;;;;9.47;85.11;101827.78;106263;1254;68583;-81
2024/02/16 02:55:17;;;;;;;;;;;;;;;9.46;83.96;101830.60;106341;1253;72361;-81
2024/02/16 02:57:45;;;;;;;;;;;;;;;9.06;86.32;101837.52;106548;1253;60536;-85
2024/02/16 03:00:25;;;;;;;;;;;;;;;8.88;87.09;101836.56;106207;1253;60379;-85
2024/02/16 03:03:06;;;;;;;;;;;;;;;8.86;86.71;101840.15;106279;1253;73858;-81
2024/02/16 03:05:48;;;;;;;;;;;;;;;8.89;86.25;101844.29;106299;1253;67474;-85
2024/02/16 03:08:16;;;;;;;;;;;;;;;9.05;84.40;101844.84;106743;1254;72679;-85
2024/02/16 03:10:55;;;;;;;;;;;;;;;8.85;85.04;101849.31;106200;1256;59248;-81
2024/02/16 03:13:35;;;;;;;;;;;;;;;9.11;83.13;101849.17;106353;1257;60512;-81
2024/02/16 03:16:08;;;;;;;;;;;;;;;9.04;83.13;101852.73;106382;1253;72616;-85
2024/02/16 03:18:43;;;;;;;;;;;;;;;9.01;83.30;101855.37;106379;1258;67111;-85
2024/02/16 03:21:23;;;;;;;;;;;;;;;8.94;83.26;101854.41;106313;1257;71410;-81
2024/02/16 03:24:06;;;;;;;;;;;;;;;8.91;83.56;101856.22;106518;1251;60432;-85
2024/02/16 03:26:39;;;;;;;;;;;;;;;8.90;83.67;101856.52;106363;1252;60468;-85
2024/02/16 03:29:13;;;;;;;;;;;;;;;8.99;82.96;101856.48;106195;1253;73840;-85
2024/02/16 03:31:53;;;;;;;;;;;;;;;9.00;82.90;101857.96;106190;1253;68755;-81
2024/02/16 03:34:20;;;;;;;;;;;;;;;9.03;82.16;101858.88;106381;1253;72044;-81
2024/02/16 03:36:54;;;;;;;;;;;;;;;8.90;83.08;101861.60;106262;1253;60998;-85
2024/02/16 03:39:34;;;;;;;;;;;;;;;8.87;82.90;101863.20;106495;1253;60365;-81
2024/02/16 03:42:14;;;;;;;;;;;;;;;8.83;82.75;101860.05;106258;1253;73925;-81
2024/02/16 03:44:48;;;;;;;;;;;;;;;8.71;83.27;101865.02;106155;1253;67946;-85
2024/02/16 03:47:22;;;;;;;;;;;;;;;8.66;83.66;101865.71;106299;1256;71398;-85
2024/02/16 03:50:01;;;;;;;;;;;;;;;8.73;83.34;101864.05;106328;1253;60877;-85
2024/02/16 03:52:41;;;;;;;;;;;;;;;8.78;82.95;101863.13;106319;1253;60437;-85
2024/02/16 03:55:15;;;;;;;;;;;;;;;8.90;82.14;101865.41;106392;1254;74191;-85
2024/02/16 03:57:48;;;;;;;;;;;;;;;8.98;81.32;101868.45;106279;1253;68471;-85
2024/02/16 04:00:28;;;;;;;;;;;;;;;9.11;79.87;101870.50;106453;1253;71425;-81
2024/02/16 04:03:09;;;;;;;;;;;;;;;9.08;78.99;101870.16;106559;1254;60449;-85
2024/02/16 04:05:43;;;;;;;;;;;;;;;8.94;79.31;101875.09;106333;1253;60430;-85
2024/02/16 04:08:16;;;;;;;;;;;;;;;8.70;80.55;101880.52;106172;1258;74222;-85
2024/02/16 04:10:56;;;;;;;;;;;;;;;8.66;81.08;101882.60;106236;1258;67463;-81
2024/02/16 04:13:36;;;;;;;;;;;;;;;8.72;80.10;101886.86;106373;1253;72706;-81
2024/02/16 04:16:09;;;;;;;;;;;;;;;8.68;80.15;101888.77;106277;1255;60372;-85
2024/02/16 04:18:43;;;;;;;;;;;;;;;8.65;80.78;101886.71;106330;1253;60483;-81
2024/02/16 04:21:23;;;;;;;;;;;;;;;8.70;80.61;101890.63;106622;1258;72932;-85
2024/02/16 04:24:03;;;;;;;;;;;;;;;8.81;79.43;101887.95;106197;1253;68357;-81
2024/02/16 04:26:37;;;;;;;;;;;;;;;8.77;79.27;101888.40;106246;1253;73198;-81
2024/02/16 04:29:11;;;;;;;;;;;;;;;8.93;77.92;101888.82;106247;1258;60498;-81
2024/02/16 04:31:51;;;;;;;;;;;;;;;9.15;75.45;101889.22;106403;1253;60441;-81
2024/02/16 04:34:31;;;;;;;;;;;;;;;9.11;74.73;101892.98;106335;1253;72224;-81
2024/02/16 04:37:05;;;;;;;;;;;;;;;8.96;75.14;101898.00;106227;1253;67498;-85
2024/02/16 04:39:38;;;;;;;;;;;;;;;8.70;77.37;101901.57;106487;1253;71520;-85
2024/02/16 04:42:18;;;;;;;;;;;;;;;8.65;77.85;101901.48;106385;1253;60084;-85
2024/02/16 04:44:58;;;;;;;;;;;;;;;8.66;77.97;101899.16;106336;1260;60289;-85
2024/02/16 04:47:36;;;;;;;;;;;;;;;8.66;77.06;101905.06;106378;1258;73867;-85
2024/02/16 04:50:10;;;;;;;;;;;;;;;8.52;78.06;101905.21;106235;1259;68729;-86
2024/02/16 04:52:51;;;;;;;;;;;;;;;8.46;78.86;101904.23;106114;1258;71398;-82
2024/02/16 04:55:30;;;;;;;;;;;;;;;8.47;78.94;101905.02;106399;1254;60383;-85
2024/02/16 04:58:09;;;;;;;;;;;;;;;8.49;78.28;101907.05;106300;1253;60485;-82
2024/02/16 05:00:46;;;;;;;;;;;;;;;8.43;78.35;101913.30;106503;1253;73621;-81
2024/02/16 05:03:26;;;;;;;;;;;;;;;8.46;78.16;101923.96;106327;1256;67269;-86
2024/02/16 05:06:06;;;;;;;;;;;;;;;8.51;77.65;101923.25;106308;1256;72870;-81
2024/02/16 05:08:34;;;;;;;;;;;;;;;8.55;77.29;101927.05;106396;1254;61080;-81
2024/02/16 05:11:14;;;;;;;;;;;;;;;8.53;76.92;101927.65;106315;1253;61411;-82
2024/02/16 05:13:54;;;;;;;;;;;;;;;8.57;75.48;101935.33;106394;1258;73450;-81
2024/02/16 05:16:34;;;;;;;;;;;;;;;8.46;74.77;101937.27;106333;1253;68421;-81
2024/02/16 05:19:02;;;;;;;;;;;;;;;8.48;74.65;101934.90;106390;1253;72654;-85
2024/02/16 05:21:41;;;;;;;;;;;;;;;8.49;74.19;101938.23;106537;1253;61212;-86
2024/02/16 05:24:22;;;;;;;;;;;;;;;8.34;75.57;101940.66;106273;1253;61201;-81
2024/02/16 05:26:56;;;;;;;;;;;;;;;8.42;74.75;101940.63;109215;1252;77083;-82
2024/02/16 05:29:31;;;;;;;;;;;;;;;8.36;75.00;101938.55;108590;1253;67640;-86
2024/02/16 05:32:12;;;;;;;;;;;;;;;8.23;76.14;101941.63;106912;1253;72812;-82
2024/02/16 05:34:52;;;;;;;;;;;;;;;8.34;76.12;101944.46;106773;1258;61327;-81
2024/02/16 05:37:28;;;;;;;;;;;;;;;8.45;75.07;101941.13;109133;1253;60698;-82
2024/02/16 05:40:18;;;;;;;;;;;;;;;8.47;74.45;101944.01;109201;1252;74540;-82
2024/02/16 05:42:58;;;;;;;;;;;;;;;8.55;74.14;101945.15;106801;1258;68511;-86
2024/02/16 05:45:38;;;;;;;;;;;;;;;8.35;75.05;101950.59;106333;1253;71436;-85
2024/02/16 05:48:19;;;;;;;;;;;;;;;8.43;75.21;101952.05;106183;1253;61319;-81
2024/02/16 05:50:47;;;;;;;;;;;;;;;8.49;74.57;101952.45;106352;1253;61192;-85
2024/02/16 05:53:27;;;;;;;;;;;;;;;8.59;73.41;101955.67;106198;1255;75164;-81
2024/02/16 05:56:07;;;;;;;;;;;;;;;8.63;72.49;101950.66;106499;1258;68774;-81
2024/02/16 05:58:41;;;;;;;;;;;;;;;8.65;71.79;101953.16;106168;1257;72690;-81
2024/02/16 06:01:15;;;;;;;;;;;;;;;8.53;71.69;101954.62;106452;1258;61331;-81
2024/02/16 06:03:54;;;;;;;;;;;;;;;8.16;73.48;101959.59;106237;1253;61244;-85
2024/02/16 06:06:34;;;;;;;;;;;;;;;8.11;74.42;101960.94;106588;1253;73343;-81
2024/02/16 06:09:08;;;;;;;;;;;;;;;8.08;75.16;101961.94;106089;1253;68366;-81
2024/02/16 13:13:22;;;;;;;;;;;;;;;10.95;53.98;102008.47;106152;1255;76928;-80
2024/02/16 13:15:59;;;;;;;;;;;;;;;10.79;54.42;102014.39;106472;1257;71240;-81
2024/02/16 13:18:36;;;;;;;;;;;;;;;10.77;54.12;102017.58;106280;1255;73624;-80
2024/02/16 13:21:13;;;;;;;;;;;;;;;10.78;54.04;102020.55;106248;1257;61324;-80
2024/02/16 13:23:48;;;;;;;;;;;;;;;10.89;53.73;102022.52;106281;1256;62127;-80
2024/02/16 13:26:23;;;;;;;;;;;;;;;10.84;53.91;102024.73;106545;1254;75544;-79
2024/02/16 13:28:59;;;;;;;;;;;;;;;10.60;54.50;102025.25;106365;1254;68567;-79
2024/02/16 13:31:31;;;;;;;;;;;;;;;10.45;55.12;102028.81;106313;1252;74894;-80
2024/02/16 13:34:05;;;;;;;;;;;;;;;10.39;55.41;102029.10;106184;1255;61502;-81
2024/02/16 13:36:36;;;;;;;;;;;;;;;10.44;55.21;102035.69;106598;1257;234430;-80
2024/02/16 13:39:10;;;;;;;;;;;;;;;10.37;55.32;102041.34;106360;1254;75747;-80
2024/02/16 13:41:40;;;;;;;;;;;;;;;10.17;55.61;102038.55;106475;1258;69934;-80
2024/02/16 13:44:14;;;;;;;;;;;;;;;10.18;55.83;102037.54;106420;1254;74044;-79
2024/02/16 13:46:44;;;;;;;;;;;;;;;10.15;56.06;102038.13;106597;1259;61272;-80
2024/02/16 13:49:17;;;;;;;;;;;;;;;10.17;55.99;102037.67;106411;1254;61766;-80
2024/02/16 13:51:48;;;;;;;;;;;;;;;10.16;56.07;102037.16;106481;1254;76656;-80
2024/02/16 13:54:23;;;;;;;;;;;;;;;9.49;57.94;102043.00;106363;1254;71223;-80
2024/02/16 13:56:54;;;;;;;;;;;;;;;9.15;59.50;102040.56;106442;1254;72971;-80
2024/02/16 13:59:29;;;;;;;;;;;;;;;9.05;60.57;102038.07;106455;1254;61356;-80
2024/02/16 14:01:59;;;;;;;;;;;;;;;8.92;61.26;102045.56;106553;1254;61456;-80
2024/02/16 14:04:34;;;;;;;;;;;;;;;8.78;62.37;102045.98;106220;1257;75760;-80
2024/02/16 14:07:07;;;;;;;;;;;;;;;8.69;63.27;102042.88;106233;1254;70632;-80
2024/02/16 14:09:38;;;;;;;;;;;;;;;8.59;64.61;102043.83;106262;1254;73748;-80
2024/02/16 14:12:09;;;;;;;;;;;;;;;8.75;63.72;102047.79;106491;1254;61337;-80
2024/02/16 14:14:43;;;;;;;;;;;;;;;8.65;64.25;102048.66;106541;1254;61769;-80
2024/02/16 14:17:14;;;;;;;;;;;;;;;8.81;63.77;102050.04;106515;1253;76708;-80
2024/02/16 14:19:47;;;;;;;;;;;;;;;9.15;62.35;102051.60;106302;1254;69166;-80
2024/02/16 14:22:18;;;;;;;;;;;;;;;9.26;61.70;102052.05;106347;1254;73542;-80
2024/02/16 14:24:51;;;;;;;;;;;;;;;9.62;60.73;102052.66;106423;1254;63240;-80
2024/02/16 14:27:23;;;;;;;;;;;;;;;9.74;59.66;102057.98;106484;1254;61194;-80
2024/02/16 14:29:56;;;;;;;;;;;;;;;9.82;59.23;102057.37;106505;1254;76888;-80
2024/02/16 14:32:29;;;;;;;;;;;;;;;9.80;59.01;102058.36;106406;1254;69649;-80
2024/02/16 14:35:01;;;;;;;;;;;;;;;9.67;59.04;102056.24;106348;1260;73584;-81
2024/02/16 14:37:34;;;;;;;;;;;;;;;9.48;59.38;102052.92;106408;1252;61811;-80
2024/02/16 14:40:09;;;;;;;;;;;;;;;9.33;59.85;102047.70;106507;1254;62120;-80
2024/02/16 14:42:42;;;;;;;;;;;;;;;9.22;60.36;102046.59;106560;1254;77095;-80
2024/02/16 14:45:18;;;;;;;;;;;;;;;9.20;60.78;102047.84;106675;1254;71217;-80
2024/02/16 14:47:52;;;;;;;;;;;;;;;9.16;60.67;102055.61;106435;1255;74132;-79
2024/02/16 14:50:24;;;;;;;;;;;;;;;9.10;60.98;102057.71;106344;1254;61235;-80
2024/02/16 14:53:02;;;;;;;;;;;;;;;9.02;61.21;102057.77;106478;1253;62152;-80
2024/02/16 14:55:30;;;;;;;;;;;;;;;8.91;62.01;102054.25;106405;1254;76526;-80
2024/02/16 14:58:09;;;;;;;;;;;;;;;8.93;62.39;102058.05;106482;1254;71146;-80
2024/02/16 15:00:37;;;;;;;;;;;;;;;8.95;62.20;102054.52;106504;1254;74461;-79
2024/02/16 15:03:14;;;;;;;;;;;;;;;8.87;62.29;102055.62;106464;1254;61525;-80
2024/02/16 15:05:43;;;;;;;;;;;;;;;8.81;62.77;102054.56;106377;1254;61883;-80
2024/02/16 15:08:19;;;;;;;;;;;;;;;8.96;62.23;102053.32;106581;1253;77158;-80
2024/02/16 15:10:52;;;;;;;;;;;;;;;8.97;62.02;102049.40;106458;1254;69925;-80
2024/02/16 15:13:24;;;;;;;;;;;;;;;9.09;61.49;102046.73;106407;1257;72575;-80
2024/02/16 15:15:55;;;;;;;;;;;;;;;9.09;61.30;102050.10;106369;1258;61330;-80
2024/02/16 15:18:26;;;;;;;;;;;;;;;8.97;61.46;102053.13;106423;1254;61304;-80
2024/02/16 15:20:57;;;;;;;;;;;;;;;8.42;63.88;102057.11;106511;1259;76851;-80
2024/02/16 15:23:28;;;;;;;;;;;;;;;8.31;64.87;102058.81;106380;1254;70191;-80
2024/02/16 15:25:59;;;;;;;;;;;;;;;8.18;65.55;102056.73;106394;1259;73824;-80
2024/02/16 15:28:30;;;;;;;;;;;;;;;8.12;66.29;102059.38;106491;1257;61245;-80
2024/02/16 15:31:01;;;;;;;;;;;;;;;8.16;66.28;102063.10;106396;1257;61972;-82
2024/02/16 15:33:32;;;;;;;;;;;;;;;7.94;67.73;102065.52;106311;1254;76504;-81
2024/02/16 15:36:04;;;;;;;;;;;;;;;7.94;68.11;102066.41;106310;1255;70676;-81
2024/02/16 15:38:34;;;;;;;;;;;;;;;7.82;68.77;102075.15;106255;1257;74616;-80
2024/02/16 15:41:05;;;;;;;;;;;;;;;7.97;68.22;102076.80;106192;1254;61611;-80
2024/02/16 15:43:36;;;;;;;;;;;;;;;8.11;67.68;102074.91;106304;1254;62532;-80
2024/02/16 15:46:07;;;;;;;;;;;;;;;8.38;66.29;102079.96;106397;1254;75045;-80
2024/02/16 15:48:36;;;;;;;;;;;;;;;8.67;64.69;102075.85;106228;1258;68600;-79
2024/02/16 15:51:07;;;;;;;;;;;;;;;8.87;63.15;102078.52;106424;1259;73550;-79
2024/02/16 15:53:36;;;;;;;;;;;;;;;8.79;63.26;102078.61;106287;1259;61464;-80
2024/02/16 15:56:06;;;;;;;;;;;;;;;8.57;64.19;102079.02;106398;1253;62254;-79
2024/02/16 15:58:37;;;;;;;;;;;;;;;8.61;64.36;102083.95;106274;1254;75823;-80
2024/02/16 16:01:10;;;;;;;;;;;;;;;8.79;63.25;102084.44;106378;1259;69262;-80
2024/02/16 16:03:43;;;;;;;;;;;;;;;8.54;63.94;102085.70;106367;1253;75047;-81
2024/02/16 16:06:17;;;;;;;;;;;;;;;8.57;63.89;102086.70;106280;1258;61474;-80
2024/02/16 16:08:47;;;;;;;;;;;;;;;8.68;63.64;102084.59;106329;1253;61139;-81
2024/02/16 16:11:21;;;;;;;;;;;;;;;8.67;63.02;102084.98;106270;1254;75734;-80
2024/02/16 16:13:51;;;;;;;;;;;;;;;8.55;63.08;102087.01;106302;1254;69785;-80
2024/02/16 16:16:24;;;;;;;;;;;;;;;8.55;63.13;102083.35;106264;1254;73704;-81
2024/02/16 16:18:57;;;;;;;;;;;;;;;8.62;63.21;102088.70;106345;1254;61231;-80
2024/02/16 16:21:30;;;;;;;;;;;;;;;8.91;61.73;102091.55;106225;1254;61949;-81
2024/02/16 16:24:03;;;;;;;;;;;;;;;8.93;60.98;102090.02;106256;1253;76757;-81
2024/02/16 16:26:37;;;;;;;;;;;;;;;8.68;60.90;102095.05;106289;1259;69850;-81
2024/02/16 16:29:08;;;;;;;;;;;;;;;8.59;60.81;102101.23;106162;1254;74712;-81
2024/02/16 16:31:40;;;;;;;;;;;;;;;8.38;61.63;102104.80;106497;1253;63499;-81
2024/02/16 16:34:11;;;;;;;;;;;;;;;8.07;63.24;102108.60;106317;1258;61774;-81
2024/02/16 16:36:45;;;;;;;;;;;;;;;7.98;63.75;102111.25;106298;1259;76631;-81
2024/02/16 16:39:17;;;;;;;;;;;;;;;7.93;63.95;102112.97;106364;1258;70119;-81
2024/02/16 16:41:50;;;;;;;;;;;;;;;7.84;64.56;102110.48;106583;1253;74779;-81
2024/02/16 16:44:22;;;;;;;;;;;;;;;7.78;65.09;102106.64;106479;1257;62884;-81
2024/02/16 16:46:56;;;;;;;;;;;;;;;7.68;65.35;102104.40;106213;1257;61232;-80
2024/02/16 16:49:27;;;;;;;;;;;;;;;7.69;66.04;102104.48;106400;1253;75960;-81
2024/02/16 16:52:00;;;;;;;;;;;;;;;7.77;65.60;102103.52;106349;1253;69948;-81
2024/02/16 16:54:30;;;;;;;;;;;;;;;7.78;65.27;102098.42;106508;1253;74827;-81
2024/02/16 16:57:04;;;;;;;;;;;;;;;7.87;64.40;102105.27;107137;1253;61311;-81
2024/02/16 16:59:38;;;;;;;;;;;;;;;7.75;64.34;102105.70;106830;1257;61249;-81
2024/02/16 17:02:12;;;;;;;;;;;;;;;7.80;64.18;102102.84;106671;1253;76680;-80
2024/02/16 17:04:42;;;;;;;;;;;;;;;7.75;65.17;102098.86;106497;1253;69338;-80
2024/02/16 17:07:17;;;;;;;;;;;;;;;7.57;66.19;102097.19;106695;1253;74635;-81
2024/02/16 17:09:53;;;;;;;;;;;;;;;7.86;65.44;102099.58;106533;1254;61243;-81
2024/02/16 17:12:29;;;;;;;;;;;;;;;7.81;65.40;102096.18;106600;1254;61869;-80
2024/02/16 17:15:00;;;;;;;;;;;;;;;7.91;65.29;102104.23;107118;1253;75317;-80
2024/02/16 17:17:33;;;;;;;;;;;;;;;7.91;65.03;102108.21;106496;1257;68926;-80
2024/02/16 17:20:06;;;;;;;;;;;;;;;7.81;65.77;102106.65;106481;1253;74737;-81
2024/02/16 17:22:39;;;;;;;;;;;;;;;7.87;66.17;102103.86;106492;1258;60314;-81
2024/02/16 17:25:11;;;;;;;;;;;;;;;7.78;66.28;102108.90;106366;1254;61230;-81
2024/02/16 17:27:48;;;;;;;;;;;;;;;7.71;66.49;102116.77;106603;1258;76733;-80
2024/02/16 17:30:19;;;;;;;;;;;;;;;7.77;66.43;102115.77;106575;1253;69908;-81
2024/02/16 17:32:54;;;;;;;;;;;;;;;7.89;65.61;102117.06;106425;1253;75030;-82
2024/02/16 17:35:26;;;;;;;;;;;;;;;7.82;65.19;102120.21;106424;1253;61337;-81
2024/02/16 17:37:59;;;;;;;;;;;;;;;7.93;65.05;102121.64;106342;1254;62302;-80
2024/02/16 17:40:29;;;;;;;;;;;;;;;8.01;64.46;102125.10;106403;1253;76642;-81
2024/02/16 17:43:03;;;;;;;;;;;;;;;8.00;64.15;102127.54;106355;1255;71210;-82
2024/02/16 17:45:34;;;;;;;;;;;;;;;7.97;63.63;102130.36;106272;1258;74941;-81
2024/02/16 17:48:07;;;;;;;;;;;;;;;7.72;64.45;102130.41;106311;1253;61353;-81
2024/02/16 17:50:38;;;;;;;;;;;;;;;7.68;65.11;102130.20;106430;1252;61336;-81
2024/02/16 17:53:10;;;;;;;;;;;;;;;7.72;64.84;102131.42;106509;1253;77012;-81
2024/02/16 17:55:44;;;;;;;;;;;;;;;7.67;64.82;102130.31;106453;1253;69951;-81
2024/02/16 17:58:17;;;;;;;;;;;;;;;7.64;65.37;102132.22;106424;1257;73749;-79
2024/02/16 18:00:48;;;;;;;;;;;;;;;7.67;65.39;102133.12;106557;1253;61386;-79
2024/02/16 18:03:19;;;;;;;;;;;;;;;7.79;64.86;102131.16;106690;1258;61860;-79
2024/02/16 18:05:53;;;;;;;;;;;;;;;7.84;64.40;102131.00;106751;1253;75762;-79
2024/02/16 18:08:23;;;;;;;;;;;;;;;7.86;64.52;102134.52;106509;1253;70018;-79
2024/02/16 18:10:56;;;;;;;;;;;;;;;7.87;64.44;102138.48;106542;1253;74984;-80
2024/02/16 18:13:27;;;;;;;;;;;;;;;7.96;64.12;102137.38;106537;1255;61133;-79
2024/02/16 18:16:01;;;;;;;;;;;;;;;7.96;64.10;102135.52;106432;1254;61893;-79
2024/02/16 18:18:32;;;;;;;;;;;;;;;8.07;63.32;102139.34;106423;1251;75639;-79
2024/02/16 18:21:05;;;;;;;;;;;;;;;8.07;63.12;102141.09;106564;1253;69764;-82
2024/02/16 18:23:41;;;;;;;;;;;;;;;8.10;62.94;102146.27;106532;1258;72592;-82
2024/02/16 18:26:15;;;;;;;;;;;;;;;8.10;62.47;102144.30;106664;1253;61761;-82
2024/02/16 18:28:49;;;;;;;;;;;;;;;7.93;63.17;102141.78;106712;1253;61273;-83
2024/02/16 18:31:22;;;;;;;;;;;;;;;7.91;63.51;102147.80;106554;1253;76629;-83
2024/02/16 18:33:52;;;;;;;;;;;;;;;7.97;63.49;102149.96;106602;1258;69308;-83
2024/02/16 18:36:26;;;;;;;;;;;;;;;8.00;63.81;102152.42;106757;1253;74025;-84
2024/02/16 18:39:01;;;;;;;;;;;;;;;8.14;62.88;102151.85;106531;1254;61123;-83
2024/02/16 18:41:30;;;;;;;;;;;;;;;8.15;62.62;102151.27;106818;1253;61156;-84
2024/02/16 18:44:01;;;;;;;;;;;;;;;8.14;62.33;102149.72;106638;1253;76923;-84
2024/02/16 18:46:35;;;;;;;;;;;;;;;7.93;62.98;102152.42;106655;1254;69744;-84
2024/02/16 18:49:07;;;;;;;;;;;;;;;7.75;63.93;102154.52;106541;1253;74934;-84
2024/02/16 18:51:40;;;;;;;;;;;;;;;7.76;63.94;102151.73;106901;1253;63474;-84
2024/02/16 18:54:12;;;;;;;;;;;;;;;7.68;63.73;102148.61;106486;1253;62230;-83
2024/02/16 18:56:44;;;;;;;;;;;;;;;7.71;63.91;102150.52;106557;1253;77401;-83
2024/02/16 18:59:16;;;;;;;;;;;;;;;7.48;64.80;102154.70;106640;1253;70533;-83
2024/02/16 19:01:49;;;;;;;;;;;;;;;7.19;66.70;102152.77;106721;1258;74919;-83
2024/02/16 19:04:22;;;;;;;;;;;;;;;7.13;67.71;102156.98;107073;1256;62911;-84
2024/02/16 19:06:54;;;;;;;;;;;;;;;6.99;69.12;102149.22;106493;1254;61317;-83
2024/02/16 19:09:26;;;;;;;;;;;;;;;7.02;68.96;102152.02;106352;1257;75623;-83
2024/02/16 19:11:58;;;;;;;;;;;;;;;7.24;68.05;102151.27;106358;1253;70527;-83
2024/02/16 19:14:30;;;;;;;;;;;;;;;7.36;67.62;102150.58;106422;1258;73250;-82
2024/02/16 19:17:01;;;;;;;;;;;;;;;7.42;67.44;102150.67;106363;1256;61572;-83
2024/02/16 19:19:33;;;;;;;;;;;;;;;7.39;67.91;102150.80;106441;1252;62135;-83
2024/02/16 19:22:05;;;;;;;;;;;;;;;7.42;67.98;102150.52;106491;1253;75774;-83
2024/02/16 19:24:37;;;;;;;;;;;;;;;7.51;67.58;102154.09;106495;1257;69694;-83
2024/02/16 19:27:11;;;;;;;;;;;;;;;7.56;67.80;102151.98;106313;1256;74928;-83
2024/02/16 19:29:41;;;;;;;;;;;;;;;7.59;68.11;102146.77;106444;1256;61242;-82
2024/02/16 19:32:12;;;;;;;;;;;;;;;7.59;68.11;102146.99;106445;1253;61145;-83
2024/02/16 19:34:45;;;;;;;;;;;;;;;7.73;67.50;102147.52;106550;1251;76637;-83
2024/02/16 19:37:17;;;;;;;;;;;;;;;7.81;67.17;102150.58;106454;1256;69682;-83
2024/02/16 19:39:49;;;;;;;;;;;;;;;8.22;65.27;102149.28;106411;1258;73696;-81
2024/02/16 19:42:21;;;;;;;;;;;;;;;8.42;63.18;102153.27;106306;1254;61291;-82
2024/02/16 19:44:53;;;;;;;;;;;;;;;7.83;65.98;102150.61;106441;1251;61285;-82
2024/02/16 19:47:26;;;;;;;;;;;;;;;7.99;65.70;102150.25;106346;1253;76678;-82
2024/02/16 19:49:59;;;;;;;;;;;;;;;7.92;65.65;102152.97;106323;1256;69976;-82
2024/02/16 19:52:29;;;;;;;;;;;;;;;7.96;65.58;102152.45;106414;1254;74986;-82
2024/02/16 19:55:02;;;;;;;;;;;;;;;8.05;64.38;102156.45;106435;1255;62779;-82
2024/02/16 19:57:31;;;;;;;;;;;;;;;7.96;64.53;102155.13;106393;1255;61224;-81
2024/02/16 20:00:01;;;;;;;;;;;;;;;8.05;64.26;102152.91;106408;1253;76194;-82
2024/02/16 20:02:39;;;;;;;;;;;;;;;8.10;63.96;102151.45;106601;1253;70363;-81
2024/02/16 20:05:07;;;;;;;;;;;;;;;8.06;64.06;102147.73;106487;1253;75082;-81
2024/02/16 20:07:36;;;;;;;;;;;;;;;8.01;64.39;102147.55;106421;1254;61582;-81
2024/02/16 20:10:04;;;;;;;;;;;;;;;8.17;63.18;102156.18;106368;1252;61759;-81
